createdAt,value
2023-03-05T00:02:20.773Z,75.01
2023-03-05T00:04:47.128Z,74.66
2023-03-05T00:07:14.248Z,74.74
2023-03-05T00:09:40.782Z,74.76
2023-03-05T00:12:07.330Z,75.03
2023-03-05T00:14:33.710Z,74.68
2023-03-05T00:17:00.086Z,74.62
2023-03-05T00:19:26.420Z,74.75
2023-03-05T00:21:52.771Z,74.54
2023-03-05T00:24:19.171Z,74.91
2023-03-05T00:26:46.066Z,74.39
2023-03-05T00:29:18.349Z,74.71
2023-03-05T00:31:45.093Z,74.71
2023-03-05T00:34:13.156Z,75.27
2023-03-05T00:36:40.646Z,75.34
2023-03-05T00:39:07.324Z,75.67
2023-03-05T00:41:33.623Z,75.42
2023-03-05T00:44:00.000Z,75.43
2023-03-05T00:46:29.023Z,75.77
2023-03-05T00:48:55.900Z,75.78
2023-03-05T00:51:22.320Z,75.88
2023-03-05T00:53:48.624Z,76.02
2023-03-05T00:56:15.330Z,76.17
2023-03-05T00:58:41.753Z,76.45
2023-03-05T01:01:08.209Z,76.40
2023-03-05T01:03:35.105Z,76.38
2023-03-05T01:06:03.671Z,76.67
2023-03-05T01:08:29.992Z,76.80
2023-03-05T01:10:56.739Z,77.04
2023-03-05T01:13:23.076Z,77.28
2023-03-05T01:15:50.958Z,77.45
2023-03-05T01:18:17.609Z,77.45
2023-03-05T01:20:44.417Z,77.55
2023-03-05T01:23:10.970Z,77.74
2023-03-05T01:25:37.518Z,77.62
2023-03-05T01:28:03.947Z,77.58
2023-03-05T01:30:30.551Z,77.41
2023-03-05T01:32:56.987Z,77.59
2023-03-05T01:35:24.826Z,77.84
2023-03-05T01:37:51.379Z,77.44
2023-03-05T01:40:19.925Z,77.79
2023-03-05T01:42:47.031Z,77.83
2023-03-05T01:45:14.581Z,77.83
2023-03-05T01:47:40.871Z,77.85
2023-03-05T01:50:09.105Z,78.33
2023-03-05T01:52:37.380Z,78.30
2023-03-05T01:55:05.886Z,78.07
2023-03-05T01:57:34.800Z,78.12
2023-03-05T02:00:03.872Z,78.31
2023-03-05T02:02:30.801Z,78.06
2023-03-05T02:05:29.449Z,78.00
2023-03-05T02:07:56.874Z,77.64
2023-03-05T02:10:25.766Z,77.89
2023-03-05T02:12:54.364Z,77.53
2023-03-05T02:15:21.217Z,77.25
2023-03-05T02:17:47.580Z,77.29
2023-03-05T02:20:18.412Z,77.43
2023-03-05T02:22:44.761Z,77.59
2023-03-05T02:25:12.790Z,77.45
2023-03-05T02:27:40.483Z,77.42
2023-03-05T02:30:07.029Z,77.22
2023-03-05T02:32:33.327Z,77.72
2023-03-05T02:34:59.711Z,77.65
2023-03-05T02:37:26.155Z,77.67
2023-03-05T02:39:52.484Z,77.97
2023-03-05T02:42:18.788Z,77.94
2023-03-05T02:44:45.088Z,78.10
2023-03-05T02:47:11.464Z,78.49
2023-03-05T02:49:37.849Z,78.57
2023-03-05T02:52:04.359Z,78.70
2023-03-05T02:54:30.717Z,78.53
2023-03-05T02:56:57.020Z,78.61
2023-03-05T02:59:23.394Z,78.44
2023-03-05T03:01:49.716Z,78.27
2023-03-05T03:04:16.033Z,78.78
2023-03-05T03:06:42.414Z,78.54
2023-03-05T03:09:08.813Z,78.38
2023-03-05T03:11:35.156Z,78.37
2023-03-05T03:14:01.489Z,78.70
2023-03-05T03:16:27.892Z,78.68
2023-03-05T03:18:54.213Z,78.83
2023-03-05T03:21:21.897Z,79.06
2023-03-05T03:23:48.345Z,79.00
2023-03-05T03:26:14.685Z,79.26
2023-03-05T03:28:41.172Z,79.33
2023-03-05T03:31:07.573Z,79.61
2023-03-05T03:33:34.031Z,80.05
2023-03-05T03:36:00.439Z,80.23
2023-03-05T03:38:26.856Z,80.02
2023-03-05T03:40:53.344Z,80.69
2023-03-05T03:43:19.638Z,81.15
2023-03-05T03:45:46.043Z,81.67
2023-03-05T03:48:12.536Z,81.59
2023-03-05T03:50:40.024Z,81.85
2023-03-05T03:53:06.783Z,82.29
2023-03-05T03:55:33.477Z,82.26
2023-03-05T03:57:59.923Z,82.60
2023-03-05T04:00:26.506Z,83.02
2023-03-05T04:02:52.937Z,83.36
2023-03-05T04:05:19.386Z,83.46
2023-03-05T04:07:45.717Z,83.52
2023-03-05T04:10:12.606Z,83.08
2023-03-05T04:12:38.976Z,83.23
2023-03-05T04:15:07.961Z,83.72
2023-03-05T04:17:34.293Z,83.60
2023-03-05T04:20:01.358Z,83.45
2023-03-05T04:22:27.756Z,83.64
2023-03-05T04:24:54.116Z,84.13
2023-03-05T04:27:20.463Z,84.17
2023-03-05T04:29:46.739Z,84.88
2023-03-05T04:32:13.261Z,84.80
2023-03-05T04:34:39.696Z,84.39
2023-03-05T04:37:06.068Z,84.61
2023-03-05T04:39:32.365Z,84.40
2023-03-05T04:41:59.693Z,84.47
2023-03-05T04:44:26.151Z,84.81
2023-03-05T04:46:52.681Z,84.36
2023-03-05T04:49:19.069Z,84.99
2023-03-05T04:51:45.471Z,84.66
2023-03-05T04:54:11.867Z,84.45
2023-03-05T04:56:38.135Z,85.04
2023-03-05T04:59:04.415Z,84.91
2023-03-05T05:01:30.822Z,84.88
2023-03-05T05:03:57.200Z,84.91
2023-03-05T05:06:23.837Z,84.82
2023-03-05T05:08:50.181Z,85.13
2023-03-05T05:11:16.534Z,85.43
2023-03-05T05:13:42.879Z,85.49
2023-03-05T05:16:09.773Z,85.68
2023-03-05T05:18:36.210Z,85.63
2023-03-05T05:21:02.611Z,85.59
2023-03-05T05:23:29.040Z,85.46
2023-03-05T05:25:56.123Z,85.72
2023-03-05T05:28:22.433Z,86.01
2023-03-05T05:30:48.696Z,86.17
2023-03-05T05:33:14.942Z,86.17
2023-03-05T05:35:41.225Z,86.28
2023-03-05T05:38:07.577Z,86.47
2023-03-05T05:40:33.964Z,86.48
2023-03-05T05:43:00.279Z,86.91
2023-03-05T05:45:26.749Z,86.69
2023-03-05T05:47:53.155Z,86.73
2023-03-05T05:50:20.044Z,86.19
2023-03-05T05:52:46.601Z,86.08
2023-03-05T05:55:13.035Z,86.50
2023-03-05T05:57:39.579Z,86.44
2023-03-05T06:00:07.592Z,86.47
2023-03-05T06:02:33.901Z,86.96
2023-03-05T06:05:00.211Z,86.78
2023-03-05T06:07:26.588Z,86.69
2023-03-05T06:09:52.867Z,86.66
2023-03-05T06:12:19.230Z,86.75
2023-03-05T06:14:45.562Z,86.54
2023-03-05T06:17:14.820Z,86.71
2023-03-05T06:19:43.292Z,86.81
2023-03-05T06:22:09.709Z,86.82
2023-03-05T06:24:37.001Z,86.57
2023-03-05T06:27:03.662Z,86.60
2023-03-05T06:29:30.000Z,86.53
2023-03-05T06:31:56.299Z,86.76
2023-03-05T06:34:22.648Z,86.94
2023-03-05T06:36:48.978Z,86.98
2023-03-05T06:39:15.314Z,86.81
2023-03-05T06:41:41.649Z,86.80
2023-03-05T06:44:07.943Z,86.68
2023-03-05T06:46:37.111Z,86.82
2023-03-05T06:49:03.900Z,86.76
2023-03-05T06:51:31.757Z,86.61
2023-03-05T06:54:16.950Z,86.64
2023-03-05T06:56:44.405Z,86.50
2023-03-05T06:59:12.201Z,86.19
2023-03-05T07:01:39.008Z,86.24
2023-03-05T07:04:06.731Z,86.47
2023-03-05T07:06:34.020Z,86.35
2023-03-05T07:09:06.451Z,86.45
2023-03-05T07:11:33.308Z,86.32
2023-03-05T07:14:00.054Z,86.11
2023-03-05T07:16:27.159Z,86.04
2023-03-05T07:18:55.125Z,85.50
2023-03-05T07:21:22.938Z,85.78
2023-03-05T07:23:49.777Z,85.99
2023-03-05T07:26:16.608Z,85.64
2023-03-05T07:28:43.372Z,86.13
2023-03-05T07:31:13.828Z,86.30
2023-03-05T07:33:40.146Z,86.13
2023-03-05T07:36:09.638Z,85.68
2023-03-05T07:38:36.319Z,85.54
2023-03-05T07:41:03.403Z,85.28
2023-03-05T07:43:29.752Z,85.51
2023-03-05T07:45:56.095Z,85.49
2023-03-05T07:48:22.528Z,85.53
2023-03-05T07:50:49.029Z,85.33
2023-03-05T07:53:18.376Z,85.44
2023-03-05T07:55:45.504Z,85.54
2023-03-05T07:58:12.524Z,85.61
2023-03-05T08:00:39.030Z,85.68
2023-03-05T08:03:05.328Z,85.46
2023-03-05T08:05:31.693Z,85.06
2023-03-05T08:07:58.119Z,85.30
2023-03-05T08:10:25.136Z,85.34
2023-03-05T08:12:51.417Z,85.28
2023-03-05T08:15:17.755Z,85.35
2023-03-05T08:17:44.300Z,84.96
2023-03-05T08:20:11.166Z,84.79
2023-03-05T08:22:37.712Z,84.65
2023-03-05T08:25:05.043Z,84.35
2023-03-05T08:27:31.383Z,84.54
2023-03-05T08:29:57.729Z,84.85
2023-03-05T08:32:24.124Z,84.58
2023-03-05T08:34:50.524Z,84.25
2023-03-05T08:37:16.981Z,84.12
2023-03-05T08:39:43.315Z,83.82
2023-03-05T08:42:09.656Z,83.33
2023-03-05T08:44:35.982Z,83.17
2023-03-05T08:47:02.259Z,82.93
2023-03-05T08:49:28.584Z,82.97
2023-03-05T08:51:54.870Z,82.87
2023-03-05T08:54:21.262Z,82.07
2023-03-05T08:56:47.626Z,81.67
2023-03-05T08:59:14.247Z,82.12
2023-03-05T09:01:40.779Z,82.01
2023-03-05T09:04:07.193Z,82.30
2023-03-05T09:06:34.436Z,82.35
2023-03-05T09:09:00.720Z,82.67
2023-03-05T09:11:26.994Z,82.50
2023-03-05T09:13:53.815Z,82.38
2023-03-05T09:16:20.579Z,82.01
2023-03-05T09:18:47.076Z,81.96
2023-03-05T09:21:15.196Z,82.21
2023-03-05T09:23:41.800Z,81.95
2023-03-05T09:26:09.100Z,81.22
2023-03-05T09:28:36.621Z,80.94
2023-03-05T09:31:03.859Z,80.81
2023-03-05T09:33:30.772Z,79.97
2023-03-05T09:35:57.148Z,78.43
2023-03-05T09:38:23.551Z,78.76
2023-03-05T09:40:58.408Z,78.20
2023-03-05T09:43:43.438Z,77.32
2023-03-05T09:46:17.917Z,76.97
2023-03-05T09:48:49.569Z,76.79
2023-03-05T09:51:24.411Z,76.72
2023-03-05T09:54:02.953Z,76.26
2023-03-05T09:56:31.972Z,75.56
2023-03-05T09:59:02.397Z,75.58
2023-03-05T10:01:34.621Z,70.38
2023-03-05T10:04:06.734Z,71.68
2023-03-05T10:06:37.705Z,72.54
2023-03-05T10:09:07.459Z,72.84
2023-03-05T10:11:45.982Z,71.87
2023-03-05T10:14:14.585Z,72.22
2023-03-05T10:16:44.013Z,72.26
2023-03-05T10:19:16.426Z,71.88
2023-03-05T10:21:50.387Z,71.68
2023-03-05T10:24:31.317Z,68.86
2023-03-05T10:27:01.488Z,71.58
2023-03-05T10:29:30.901Z,68.01
2023-03-05T10:32:04.697Z,68.33
2023-03-05T10:34:40.036Z,67.39
2023-03-05T10:37:06.330Z,66.28
2023-03-05T10:39:32.659Z,66.14
2023-03-05T10:42:02.416Z,64.39
2023-03-05T10:44:34.900Z,63.38
2023-03-05T10:47:01.480Z,63.59
2023-03-05T10:49:32.510Z,62.98
2023-03-05T10:52:09.683Z,62.82
2023-03-05T10:54:36.131Z,62.98
2023-03-05T10:57:16.173Z,62.59
2023-03-05T10:59:53.589Z,60.13
2023-03-05T11:02:22.853Z,61.34
2023-03-05T11:04:49.696Z,57.56
2023-03-05T11:07:16.110Z,57.59
2023-03-05T11:10:04.085Z,56.18
2023-03-05T11:12:32.061Z,55.47
2023-03-05T11:15:03.748Z,56.08
2023-03-05T11:17:30.084Z,55.87
2023-03-05T11:19:57.388Z,55.57
2023-03-05T11:22:24.453Z,54.24
2023-03-05T11:25:11.073Z,54.99
2023-03-05T11:27:39.048Z,54.83
2023-03-05T11:30:25.875Z,53.88
2023-03-05T11:33:12.528Z,48.59
2023-03-05T11:35:40.168Z,50.87
2023-03-05T11:38:14.445Z,51.49
2023-03-05T11:40:40.837Z,51.80
2023-03-05T11:43:13.242Z,51.18
2023-03-05T11:45:40.952Z,52.28
2023-03-05T11:48:20.031Z,52.10
2023-03-05T11:50:49.196Z,52.12
2023-03-05T11:53:24.553Z,51.82
2023-03-05T11:55:52.655Z,52.40
2023-03-05T11:58:28.567Z,51.62
2023-03-05T12:00:55.341Z,52.30
2023-03-05T12:03:24.423Z,52.42
2023-03-05T12:05:56.196Z,51.32
2023-03-05T12:08:26.824Z,51.79
2023-03-05T12:10:53.379Z,52.65
2023-03-05T12:13:35.431Z,52.91
2023-03-05T12:16:01.763Z,53.23
2023-03-05T12:18:37.213Z,53.57
2023-03-05T12:21:22.423Z,54.03
2023-03-05T12:23:50.776Z,54.46
2023-03-05T12:26:17.870Z,54.70
2023-03-05T12:28:45.849Z,54.48
2023-03-05T12:31:34.232Z,54.31
2023-03-05T12:34:20.545Z,54.47
2023-03-05T12:36:46.899Z,54.17
2023-03-05T12:39:33.168Z,54.64
2023-03-05T12:41:59.562Z,54.47
2023-03-05T12:44:25.919Z,53.27
2023-03-05T12:47:10.676Z,51.19
2023-03-05T12:49:40.425Z,52.05
2023-03-05T12:52:15.830Z,51.41
2023-03-05T12:54:42.318Z,51.35
2023-03-05T12:57:19.107Z,51.07
2023-03-05T12:59:51.491Z,51.40
2023-03-05T13:02:23.224Z,50.41
2023-03-05T13:04:52.578Z,49.27
2023-03-05T13:07:19.117Z,50.01
2023-03-05T13:09:56.217Z,50.35
2023-03-05T13:12:23.478Z,49.78
2023-03-05T13:14:58.616Z,50.19
2023-03-05T13:17:29.468Z,50.57
2023-03-05T13:19:56.074Z,50.47
2023-03-05T13:22:24.614Z,50.42
2023-03-05T13:25:12.958Z,50.21
2023-03-05T13:27:39.359Z,50.43
2023-03-05T13:30:05.983Z,50.41
2023-03-05T13:32:33.023Z,49.99
2023-03-05T13:35:00.402Z,50.47
2023-03-05T13:37:28.958Z,50.77
2023-03-05T13:39:57.111Z,51.25
2023-03-05T13:42:25.975Z,51.21
2023-03-05T13:44:58.223Z,51.55
2023-03-05T13:47:25.472Z,51.64
2023-03-05T13:49:55.929Z,52.31
2023-03-05T13:52:48.477Z,52.73
2023-03-05T13:55:16.874Z,52.76
2023-03-05T13:57:50.587Z,52.65
2023-03-05T14:00:49.357Z,53.08
2023-03-05T14:03:15.699Z,53.00
2023-03-05T14:05:45.474Z,53.19
2023-03-05T14:08:25.360Z,53.38
2023-03-05T14:10:52.445Z,53.01
2023-03-05T14:13:23.590Z,52.90
2023-03-05T14:16:08.113Z,52.95
2023-03-05T14:18:34.666Z,52.65
2023-03-05T14:21:03.157Z,51.70
2023-03-05T14:23:32.575Z,51.68
2023-03-05T14:26:19.911Z,51.91
2023-03-05T14:29:13.871Z,51.69
2023-03-05T14:31:52.697Z,51.16
2023-03-05T14:34:32.892Z,51.57
2023-03-05T14:37:00.609Z,51.52
2023-03-05T14:39:47.200Z,51.40
2023-03-05T14:42:27.314Z,51.74
2023-03-05T14:44:55.698Z,52.67
2023-03-05T14:47:25.279Z,52.69
2023-03-05T14:49:51.827Z,52.84
2023-03-05T14:52:19.921Z,52.98
2023-03-05T14:54:46.503Z,52.54
2023-03-05T14:57:18.789Z,52.28
2023-03-05T14:59:47.307Z,52.52
2023-03-05T15:02:15.081Z,52.89
2023-03-05T15:04:41.638Z,52.67
2023-03-05T15:07:11.264Z,52.77
2023-03-05T15:09:37.849Z,52.93
2023-03-05T15:12:04.294Z,52.86
2023-03-05T15:14:30.810Z,52.86
2023-03-05T15:16:57.171Z,52.98
2023-03-05T15:19:24.346Z,52.74
2023-03-05T15:21:50.638Z,52.55
2023-03-05T15:24:16.896Z,52.24
2023-03-05T15:26:43.246Z,51.63
2023-03-05T15:29:09.601Z,51.86
2023-03-05T15:31:38.705Z,51.72
2023-03-05T15:34:05.749Z,51.11
2023-03-05T15:36:33.575Z,50.76
2023-03-05T15:39:00.039Z,50.41
2023-03-05T15:41:26.420Z,49.61
2023-03-05T15:43:52.927Z,49.18
2023-03-05T15:46:19.368Z,49.35
2023-03-05T15:48:49.890Z,49.23
2023-03-05T15:51:17.313Z,49.49
2023-03-05T15:53:45.242Z,50.51
2023-03-05T15:56:18.674Z,50.87
2023-03-05T15:58:45.172Z,50.91
2023-03-05T16:01:11.887Z,50.57
2023-03-05T16:03:38.639Z,50.75
2023-03-05T16:06:05.495Z,50.15
2023-03-05T16:08:33.515Z,49.95
2023-03-05T16:11:00.126Z,50.01
2023-03-05T16:13:28.560Z,50.11
2023-03-05T16:15:55.319Z,49.77
2023-03-05T16:18:22.269Z,49.43
2023-03-05T16:20:48.806Z,49.39
2023-03-05T16:23:15.130Z,49.34
2023-03-05T16:25:41.533Z,48.51
2023-03-05T16:28:07.916Z,48.35
2023-03-05T16:30:34.373Z,49.34
2023-03-05T16:33:00.767Z,49.57
2023-03-05T16:35:27.109Z,49.69
2023-03-05T16:37:53.457Z,49.56
2023-03-05T16:40:19.813Z,49.53
2023-03-05T16:42:46.101Z,49.47
2023-03-05T16:45:12.800Z,50.01
2023-03-05T16:47:39.709Z,50.12
2023-03-05T16:50:06.653Z,50.00
2023-03-05T16:52:33.760Z,50.23
2023-03-05T16:55:00.116Z,50.31
2023-03-05T16:57:28.785Z,50.46
2023-03-05T16:59:55.611Z,50.78
2023-03-05T17:02:21.941Z,50.89
2023-03-05T17:04:49.454Z,50.86
2023-03-05T17:07:16.011Z,51.13
2023-03-05T17:09:42.371Z,50.75
2023-03-05T17:12:08.711Z,50.96
2023-03-05T17:14:35.023Z,51.22
2023-03-05T17:17:01.438Z,51.34
2023-03-05T17:19:27.815Z,51.98
2023-03-05T17:21:56.171Z,53.25
2023-03-05T17:24:22.953Z,53.98
2023-03-05T17:26:52.665Z,54.55
2023-03-05T17:29:19.919Z,55.61
2023-03-05T17:31:46.807Z,55.87
2023-03-05T17:34:13.437Z,56.79
2023-03-05T17:36:39.762Z,57.80
2023-03-05T17:39:06.092Z,58.10
2023-03-05T17:41:32.365Z,58.01
2023-03-05T17:43:58.642Z,58.07
2023-03-05T17:46:24.984Z,58.95
2023-03-05T17:48:51.323Z,58.54
2023-03-05T17:51:17.662Z,58.86
2023-03-05T17:53:44.489Z,59.27
2023-03-05T17:56:11.486Z,59.54
2023-03-05T17:58:38.228Z,59.53
2023-03-05T18:01:05.377Z,59.32
2023-03-05T18:03:31.910Z,59.43
2023-03-05T18:05:58.292Z,59.20
2023-03-05T18:08:24.647Z,59.21
2023-03-05T18:10:51.024Z,59.10
2023-03-05T18:13:17.458Z,58.86
2023-03-05T18:15:47.583Z,58.80
2023-03-05T18:18:18.321Z,58.84
2023-03-05T18:20:45.224Z,59.10
2023-03-05T18:23:11.809Z,59.01
2023-03-05T18:25:38.126Z,59.25
2023-03-05T18:28:06.321Z,59.17
2023-03-05T18:30:33.190Z,58.75
2023-03-05T18:32:59.664Z,58.56
2023-03-05T18:35:26.141Z,59.08
2023-03-05T18:37:52.441Z,59.18
2023-03-05T18:40:20.553Z,59.09
2023-03-05T18:42:46.965Z,59.42
2023-03-05T18:45:14.669Z,59.35
2023-03-05T18:47:44.067Z,59.38
2023-03-05T18:50:11.954Z,59.20
2023-03-05T18:52:38.314Z,59.00
2023-03-05T18:55:04.876Z,59.17
2023-03-05T18:57:31.154Z,58.86
2023-03-05T18:59:57.489Z,59.26
2023-03-05T19:02:23.840Z,59.07
2023-03-05T19:04:52.857Z,59.14
2023-03-05T19:07:19.266Z,59.61
2023-03-05T19:09:53.116Z,59.91
2023-03-05T19:12:20.265Z,59.83
2023-03-05T19:14:46.740Z,59.73
2023-03-05T19:17:13.174Z,60.43
2023-03-05T19:19:42.647Z,60.13
2023-03-05T19:22:10.280Z,60.28
2023-03-05T19:24:38.439Z,60.82
2023-03-05T19:27:10.920Z,60.20
2023-03-05T19:29:37.997Z,60.61
2023-03-05T19:32:04.848Z,61.21
2023-03-05T19:34:31.546Z,60.93
2023-03-05T19:36:58.007Z,61.14
2023-03-05T19:39:24.430Z,61.37
2023-03-05T19:41:51.052Z,61.61
2023-03-05T19:44:18.577Z,61.74
2023-03-05T19:46:45.093Z,61.92
2023-03-05T19:49:11.417Z,61.71
2023-03-05T19:51:39.756Z,62.32
2023-03-05T19:54:06.096Z,62.45
2023-03-05T19:56:32.390Z,62.54
2023-03-05T19:58:58.729Z,62.64
2023-03-05T20:01:26.403Z,62.55
2023-03-05T20:03:53.886Z,62.19
2023-03-05T20:06:20.746Z,62.58
2023-03-05T20:08:47.921Z,62.15
2023-03-05T20:11:22.983Z,62.41
2023-03-05T20:13:49.871Z,62.32
2023-03-05T20:16:17.429Z,62.04
2023-03-05T20:18:44.469Z,62.07
2023-03-05T20:21:10.960Z,62.06
2023-03-05T20:23:37.276Z,61.96
2023-03-05T20:26:04.670Z,61.64
2023-03-05T20:28:31.229Z,61.45
2023-03-05T20:30:58.926Z,61.59
2023-03-05T20:33:25.783Z,61.11
2023-03-05T20:35:53.336Z,61.59
2023-03-05T20:38:29.468Z,61.15
2023-03-05T20:40:58.966Z,61.46
2023-03-05T20:43:30.027Z,61.72
2023-03-05T20:45:59.352Z,61.44
2023-03-05T20:48:26.790Z,61.86
2023-03-05T20:50:53.457Z,61.96
2023-03-05T20:53:20.311Z,61.97
2023-03-05T20:55:46.670Z,62.11
2023-03-05T20:58:13.163Z,61.69
2023-03-05T21:00:40.128Z,62.04
2023-03-05T21:03:07.186Z,61.91
2023-03-05T21:05:34.980Z,62.45
2023-03-05T21:08:01.574Z,62.64
2023-03-05T21:10:28.145Z,62.31
2023-03-05T21:12:54.604Z,62.77
2023-03-05T21:15:22.836Z,62.69
2023-03-05T21:17:49.913Z,62.88
2023-03-05T21:20:18.264Z,63.07
2023-03-05T21:22:47.560Z,62.94
2023-03-05T21:25:20.914Z,63.30
2023-03-05T21:27:54.273Z,63.00
2023-03-05T21:30:21.481Z,63.12
2023-03-05T21:32:48.227Z,63.18
2023-03-05T21:35:16.043Z,63.68
2023-03-05T21:37:42.820Z,63.44
2023-03-05T21:40:14.106Z,63.53
2023-03-05T21:42:40.757Z,63.72
2023-03-05T21:45:08.546Z,63.89
2023-03-05T21:47:34.832Z,63.99
2023-03-05T21:50:04.533Z,63.93
2023-03-05T21:52:30.945Z,64.10
2023-03-05T21:54:57.999Z,64.48
2023-03-05T21:57:25.197Z,64.57
2023-03-05T21:59:51.897Z,64.86
2023-03-05T22:02:19.250Z,64.75
2023-03-05T22:04:45.982Z,65.31
2023-03-05T22:07:12.943Z,65.48
2023-03-05T22:09:39.391Z,65.35
2023-03-05T22:12:07.035Z,65.64
2023-03-05T22:14:33.353Z,66.04
2023-03-05T22:17:02.068Z,65.91
2023-03-05T22:19:29.761Z,66.01
2023-03-05T22:21:57.535Z,66.55
2023-03-05T22:24:25.502Z,66.58
2023-03-05T22:26:51.910Z,66.92
2023-03-05T22:29:18.429Z,66.65
2023-03-05T22:31:44.922Z,67.10
2023-03-05T22:34:11.220Z,67.06
2023-03-05T22:36:37.521Z,67.17
2023-03-05T22:39:04.455Z,67.31
2023-03-05T22:41:30.799Z,68.01
2023-03-05T22:43:57.102Z,68.28
2023-03-05T22:46:25.211Z,68.53
2023-03-05T22:48:52.164Z,68.83
2023-03-05T22:51:18.994Z,69.07
2023-03-05T22:53:45.853Z,69.15
2023-03-05T22:56:13.546Z,69.45
2023-03-05T22:58:40.178Z,69.36
2023-03-05T23:01:20.024Z,69.80
2023-03-05T23:03:47.150Z,69.47
2023-03-05T23:06:13.535Z,69.47
2023-03-05T23:08:39.850Z,69.73
2023-03-05T23:11:10.476Z,70.25
2023-03-05T23:13:36.836Z,70.43
2023-03-05T23:16:03.295Z,70.42
2023-03-05T23:18:29.652Z,70.43
2023-03-05T23:20:56.187Z,71.05
2023-03-05T23:23:25.164Z,71.43
2023-03-05T23:25:52.030Z,71.24
2023-03-05T23:28:19.460Z,71.44
2023-03-05T23:30:45.774Z,72.17
2023-03-05T23:33:16.505Z,72.17
2023-03-05T23:35:49.189Z,72.28
2023-03-05T23:38:15.726Z,72.34
2023-03-05T23:40:43.645Z,72.97
2023-03-05T23:43:10.378Z,73.24
2023-03-05T23:45:37.158Z,73.05
2023-03-05T23:48:03.716Z,73.20
2023-03-05T23:50:31.829Z,73.53
2023-03-05T23:53:00.642Z,73.85
2023-03-05T23:55:30.802Z,74.15
2023-03-05T23:57:57.172Z,74.13
